Date,TemperatureHighF,TemperatureAvgF,TemperatureLowF,DewpointHighF,DewpointAvgF,DewpointLowF,HumidityHigh,HumidityAvg,HumidityLow,PressureMaxIn,PressureMinIn,WindSpeedMaxMPH,WindSpeedAvgMPH,GustSpeedMaxMPH,PrecipitationSumIn
2013-4-16,55.4,49.7,49.6,46.1,46.0,36.5,87,87,87,30.13,29.25,9,8,9,0.49
2013-4-17,66.7,48.4,39.9,40.3,35.0,32.3,74,61,38,30.32,30.15,8,2,8,0.49
2013-4-18,62.1,48.2,35.6,44.3,36.6,30.6,85,67,36,30.41,30.17,12,4,12,0.00
2013-4-19,61.2,56.4,48.9,57.9,53.3,44.6,93,90,83,30.17,29.77,16,7,16,0.00
2013-4-20,60.8,53.1,42.8,58.8,48.9,38.3,93,86,69,30.17,29.68,21,6,21,0.37
2013-4-21,57.0,45.7,36.7,39.2,30.0,26.0,84,55,38,30.65,30.17,18,6,18,0.00
2013-4-22,58.3,43.7,32.0,40.2,32.5,25.6,85,66,45,30.72,30.52,13,5,13,0.00
2013-4-23,46.2,44.3,42.1,43.0,40.8,34.6,92,87,74,30.53,29.94,17,7,17,1.23
2013-4-24,59.0,48.7,44.2,50.4,44.7,41.8,92,86,68,29.95,29.76,21,9,21,0.21
2013-4-25,54.3,48.7,42.4,50.3,42.7,37.3,92,80,64,30.23,29.91,10,3,10,0.00
2013-4-26,67.3,50.5,38.5,46.9,40.2,34.8,89,70,43,30.40,30.23,9,3,9,0.00
2013-4-27,67.1,49.7,34.7,49.0,35.2,30.2,89,62,31,30.39,30.31,7,2,7,0.00
2013-4-28,67.6,51.6,35.8,50.3,40.1,30.4,87,67,43,30.34,30.26,7,2,7,0.00
2013-4-29,68.9,52.7,41.0,50.0,39.2,29.2,89,64,25,30.28,30.23,7,2,7,0.00
2013-4-30,69.1,52.6,38.7,43.4,34.3,26.9,84,54,22,30.36,30.24,6,2,6,0.00
2013-5-1,68.0,53.2,40.8,51.6,42.9,35.6,88,69,51,30.47,30.34,10,2,10,0.00
2013-5-2,77.0,54.3,39.9,53.4,42.9,34.6,88,68,36,30.44,30.37,13,3,13,0.00
2013-5-3,56.7,47.1,38.5,45.7,40.4,34.1,89,78,64,30.44,30.33,18,5,18,0.00
2013-5-4,60.4,49.1,41.2,44.7,40.3,37.1,89,73,52,30.33,30.28,16,6,16,0.00
2013-5-5,63.7,51.5,43.0,48.5,42.6,38.2,87,73,52,30.28,30.25,13,4,13,0.00
2013-5-6,70.5,53.4,43.5,53.6,45.1,39.6,88,75,50,30.28,30.17,7,2,7,0.00
2013-5-7,70.9,52.5,47.3,60.4,48.7,43.9,90,87,70,30.19,30.14,5,1,5,0.00
2013-5-19,73.4,62.0,51.3,53.3,50.3,45.9,87,68,47,30.34,30.25,10,4,10,0.06
2013-5-20,76.3,63.4,55.8,64.4,57.9,52.7,91,83,66,30.25,29.92,12,5,12,0.41
2013-5-21,72.3,63.6,57.9,62.3,57.3,52.8,87,80,67,29.97,29.87,10,3,10,0.00
2013-5-22,77.7,60.5,53.6,64.8,54.1,49.2,86,80,63,29.95,29.89,10,4,10,0.00
2013-5-23,68.4,63.8,60.1,59.8,57.6,55.2,84,80,74,29.95,29.88,15,7,15,0.51
2013-5-24,64.4,62.5,57.2,57.0,54.8,49.3,78,76,73,29.88,29.69,17,6,17,2.23
2013-5-25,60.4,54.2,45.9,50.3,45.7,38.4,76,73,66,29.71,29.64,13,5,13,0.19
2013-5-26,63.7,50.5,42.6,47.5,39.6,34.6,75,67,51,30.06,29.69,14,5,14,0.01
2013-5-27,77.0,59.8,45.0,51.9,41.9,35.2,70,54,29,30.16,30.06,14,4,14,0.00
2013-5-28,74.7,59.8,45.0,54.6,46.5,36.1,72,62,42,30.23,30.15,8,3,8,0.00
2013-5-29,67.5,59.1,55.8,56.1,49.9,47.6,74,72,66,30.22,30.00,10,5,10,1.00
2013-5-30,88.0,70.1,60.3,69.8,56.9,50.4,71,63,53,30.08,30.00,8,4,8,0.13
2013-5-31,90.7,74.0,61.2,70.6,59.3,50.9,69,61,46,30.08,29.97,12,4,12,0.00
2013-6-1,80.6,68.8,61.9,64.0,56.4,51.6,70,65,56,30.00,29.92,14,6,14,0.00
2013-6-2,73.0,66.5,62.8,58.8,54.8,52.5,69,66,60,29.95,29.84,14,7,14,0.00
2013-6-3,65.8,64.1,62.4,54.6,52.6,50.9,67,66,65,29.87,29.77,14,6,14,1.53
2013-6-4,75.4,64.3,52.9,52.4,47.6,40.2,66,56,40,30.05,29.77,14,4,14,0.00
2013-6-5,77.4,61.7,47.8,54.9,45.5,37.0,66,56,39,30.18,30.05,8,2,9,0.00
2013-6-6,77.0,63.5,53.6,56.9,48.6,41.9,65,59,45,30.19,30.08,8,3,8,0.00
2013-6-7,64.8,58.3,56.1,52.5,46.4,44.5,66,65,63,30.08,29.76,12,4,12,1.31
2013-6-8,73.8,65.1,60.3,60.8,52.4,48.2,65,63,61,29.98,29.55,14,6,14,0.21
2013-6-9,85.3,69.5,58.3,63.8,54.5,45.7,64,59,45,30.14,29.98,9,3,10,0.00
2013-6-10,75.2,64.6,57.6,60.1,51.9,45.5,65,64,57,30.18,29.99,9,2,9,0.40
2013-6-11,68.7,63.4,57.2,54.4,50.0,43.9,64,62,59,30.00,29.51,13,5,13,1.42
2013-6-12,74.3,63.2,56.1,59.0,50.3,43.3,65,63,57,29.75,29.53,14,5,14,0.01
2013-6-13,63.7,58.8,55.0,51.7,47.2,43.1,66,65,64,29.79,29.59,10,3,10,0.17
2013-6-14,61.3,56.6,53.2,49.9,44.8,41.1,66,65,63,29.73,29.51,18,6,18,0.79
2013-6-15,82.4,66.0,52.2,59.9,49.3,40.7,66,56,32,29.93,29.71,13,4,13,0.00
2013-6-16,78.8,66.7,59.7,61.7,52.9,46.7,65,61,48,29.93,29.76,13,4,13,0.00
2013-6-17,81.3,69.2,60.8,65.3,55.2,47.3,64,61,57,29.90,29.76,12,4,12,0.00
2013-6-18,87.3,69.5,61.5,69.5,55.3,48.1,64,61,52,29.91,29.83,8,2,8,0.00
2013-6-19,79.2,66.2,55.0,60.1,50.5,43.2,65,57,43,30.13,29.82,13,4,14,0.03
2013-6-20,77.7,64.8,52.0,59.9,49.8,40.6,65,59,42,30.26,30.13,12,4,12,0.00
2013-6-21,76.6,68.0,60.8,59.6,53.7,48.9,65,61,53,30.26,30.20,12,5,12,0.00
2013-6-22,81.7,69.6,63.3,62.9,55.5,50.9,65,61,44,30.23,30.14,10,4,10,0.00
2013-6-23,77.9,70.5,65.3,62.9,55.8,50.8,62,60,56,30.16,30.03,16,5,16,0.00
2013-6-24,88.3,76.5,68.2,71.7,60.7,52.2,62,58,55,30.03,29.85,12,5,12,0.03
2013-6-25,92.3,75.9,68.2,71.8,60.2,53.7,62,59,47,29.88,29.73,10,4,10,0.01
2013-6-26,91.8,78.2,69.6,73.1,62.2,53.7,61,58,52,29.82,29.69,10,3,10,0.00
2013-6-27,79.2,69.8,65.7,62.6,54.6,50.3,60,59,55,29.83,29.73,7,2,7,0.00
2013-6-28,70.5,68.6,66.6,54.1,51.4,49.9,56,54,52,29.73,29.55,15,5,15,0.60
2013-6-29,70.7,68.8,66.2,52.7,50.5,48.7,54,52,50,29.74,29.54,12,5,12,0.21
2013-6-30,74.4,69.8,67.6,57.7,50.6,48.1,58,50,48,29.95,29.74,9,4,10,0.07
2013-7-1,75.9,71.1,68.2,58.1,50.5,47.8,55,48,46,30.10,29.95,9,4,13,0.05
2013-7-2,78.8,72.6,69.3,61.4,51.5,46.9,56,48,42,30.19,30.08,9,4,10,0.14
2013-7-3,83.7,75.9,70.5,68.8,54.9,45.7,61,49,39,30.21,30.15,10,5,12,0.00
2013-7-4,87.4,77.5,72.0,71.0,54.9,44.3,60,46,35,30.19,30.10,10,5,15,0.00
2013-7-5,91.8,79.5,72.0,74.4,57.7,43.3,60,48,35,30.13,30.03,9,4,12,0.00
2013-7-6,94.1,81.0,72.3,76.5,59.4,44.6,60,48,36,30.05,29.93,8,3,10,0.00
2013-7-7,94.3,82.1,71.8,76.4,62.9,48.7,61,52,40,29.98,29.90,7,3,8,0.00
2013-7-8,89.6,79.1,73.0,72.5,57.8,43.8,59,49,34,30.00,29.90,12,4,12,0.00
2013-7-9,78.8,73.5,70.2,57.8,50.9,44.7,51,45,40,30.06,29.99,6,1,6,0.05
2013-7-10,83.3,74.7,69.4,63.3,47.1,41.2,51,38,31,30.05,29.82,9,3,9,0.00
2013-7-11,74.5,73.8,73.0,41.9,38.9,36.1,31,28,26,29.87,29.79,10,4,10,0.00
2013-7-12,73.8,70.4,66.6,53.1,40.1,33.0,50,34,25,30.13,29.87,11,3,11,0.00
2013-7-13,88.2,73.4,66.9,69.9,45.5,31.5,57,38,25,30.26,30.13,6,2,6,0.12
2013-7-14,87.6,77.5,70.0,68.4,47.1,32.2,54,36,21,30.26,30.16,6,2,6,0.01
2013-7-15,96.4,81.7,71.6,76.5,53.8,33.2,54,40,21,30.16,30.06,6,1,6,0.01
2013-7-16,95.5,81.0,71.2,75.1,56.5,37.5,57,44,28,30.12,30.03,7,2,7,0.00
2013-7-17,93.6,78.1,68.0,73.0,53.2,36.6,56,43,30,30.15,30.00,7,2,7,0.00
2013-7-18,94.5,81.8,73.2,74.0,53.2,28.9,54,39,19,30.06,29.93,12,3,12,0.00
2013-7-19,92.1,80.6,73.9,68.5,41.7,28.8,48,26,15,30.03,29.83,0,0,0,0.00
2013-7-20,88.7,80.8,76.3,63.8,39.7,22.2,45,25,13,29.85,29.74,0,0,0,0.00
2013-7-21,86.5,75.2,66.2,64.7,41.5,25.9,50,31,17,30.05,29.84,0,0,0,0.00
2013-7-22,86.9,73.1,66.0,65.9,34.7,16.7,50,26,13,30.05,29.94,0,0,0,0.00
2013-7-23,85.8,75.5,69.4,50.8,20.9,0.2,30,14,5,29.94,29.61,0,0,0,0.00
2013-7-24,91.6,79.9,69.3,69.4,29.9,-20.0,51,25,2,29.93,29.62,0,0,0,0.17
2013-7-25,70.0,66.7,63.3,42.9,30.2,-4.1,40,28,6,30.08,29.92,0,0,0,0.12
2013-7-26,66.9,66.1,65.1,-3.7,-18.6,-37.3,6,3,1,30.03,29.87,0,0,0,1.24